createdAt,value
2023-02-13T00:00:12.833Z,16.40
2023-02-13T00:02:39.470Z,16.73
2023-02-13T00:05:06.716Z,15.87
2023-02-13T00:07:33.325Z,16.33
2023-02-13T00:09:59.934Z,20.47
2023-02-13T00:12:26.624Z,17.40
2023-02-13T00:14:54.304Z,15.67
2023-02-13T00:17:20.854Z,16.53
2023-02-13T00:19:47.413Z,16.43
2023-02-13T00:22:16.523Z,16.53
2023-02-13T00:24:43.759Z,16.77
2023-02-13T00:27:10.356Z,16.43
2023-02-13T00:29:37.067Z,16.60
2023-02-13T00:32:03.847Z,15.30
2023-02-13T00:34:30.548Z,15.97
2023-02-13T00:36:57.177Z,16.07
2023-02-13T00:39:23.781Z,16.13
2023-02-13T00:41:50.396Z,15.23
2023-02-13T00:44:17.013Z,19.50
2023-02-13T00:46:43.780Z,15.07
2023-02-13T00:49:10.495Z,15.67
2023-02-13T00:51:37.128Z,15.63
2023-02-13T00:54:04.083Z,16.47
2023-02-13T00:56:30.667Z,14.63
2023-02-13T00:58:57.238Z,15.20
2023-02-13T01:01:23.882Z,13.83
2023-02-13T01:03:50.571Z,14.90
2023-02-13T01:06:17.155Z,15.60
2023-02-13T01:08:43.772Z,15.53
2023-02-13T01:11:10.360Z,13.47
2023-02-13T01:13:37.082Z,14.57
2023-02-13T01:16:03.819Z,14.03
2023-02-13T01:18:30.483Z,14.37
2023-02-13T01:21:02.207Z,14.13
2023-02-13T01:23:34.104Z,12.90
2023-02-13T01:26:00.980Z,13.93
2023-02-13T01:28:27.822Z,12.83
2023-02-13T01:30:56.790Z,13.43
2023-02-13T01:33:25.411Z,13.83
2023-02-13T01:35:52.366Z,13.87
2023-02-13T01:38:18.995Z,14.93
2023-02-13T01:40:47.308Z,13.60
2023-02-13T01:43:14.640Z,14.30
2023-02-13T01:45:42.442Z,13.73
2023-02-13T01:48:18.927Z,13.50
2023-02-13T01:50:55.534Z,14.67
2023-02-13T01:53:31.871Z,14.67
2023-02-13T01:56:15.012Z,14.33
2023-02-13T01:58:44.984Z,15.48
2023-02-13T02:01:12.160Z,13.83
2023-02-13T02:04:10.654Z,15.37
2023-02-13T02:06:46.108Z,14.57
2023-02-13T02:09:18.703Z,14.90
2023-02-13T02:12:10.159Z,15.03
2023-02-13T02:14:37.718Z,16.03
2023-02-13T02:17:04.384Z,15.07
2023-02-13T02:19:55.496Z,14.63
2023-02-13T02:22:43.624Z,15.20
2023-02-13T02:25:47.822Z,14.83
2023-02-13T02:28:33.408Z,14.77
2023-02-13T02:31:40.381Z,15.03
2023-02-13T02:34:35.710Z,14.53
2023-02-13T02:37:13.476Z,13.87
2023-02-13T02:40:15.038Z,18.30
2023-02-13T02:42:50.177Z,15.43
2023-02-13T02:45:37.732Z,13.90
2023-02-13T02:48:32.626Z,13.90
2023-02-13T02:51:03.251Z,12.67
2023-02-13T02:53:37.671Z,13.53
2023-02-13T02:56:35.183Z,13.63
2023-02-13T02:59:28.904Z,13.40
2023-02-13T03:02:15.832Z,14.20
2023-02-13T03:05:03.990Z,14.33
2023-02-13T03:07:30.861Z,13.80
2023-02-13T03:10:26.659Z,14.50
2023-02-13T03:13:21.091Z,14.30
2023-02-13T03:16:08.944Z,13.43
2023-02-13T03:19:01.996Z,13.80
2023-02-13T03:21:53.606Z,15.00
2023-02-13T03:24:35.369Z,14.87
2023-02-13T03:27:12.065Z,14.80
2023-02-13T03:30:00.345Z,15.03
2023-02-13T03:32:36.583Z,13.70
2023-02-13T03:35:53.005Z,13.93
2023-02-13T03:38:31.874Z,14.07
2023-02-13T03:41:19.261Z,13.93
2023-02-13T03:44:10.054Z,14.17
2023-02-13T03:46:39.731Z,13.03
2023-02-13T03:49:28.956Z,13.43
2023-02-13T03:52:07.663Z,14.17
2023-02-13T03:55:02.993Z,14.23
2023-02-13T03:57:50.707Z,14.87
2023-02-13T04:00:19.770Z,14.30
2023-02-13T04:03:05.194Z,15.53
2023-02-13T04:05:36.617Z,15.27
2023-02-13T04:08:03.329Z,16.17
2023-02-13T04:10:34.368Z,15.80
2023-02-13T04:13:18.270Z,14.97
2023-02-13T04:16:01.740Z,16.20
2023-02-13T04:18:33.511Z,15.13
2023-02-13T04:21:07.600Z,16.23
2023-02-13T04:23:36.061Z,15.47
2023-02-13T04:26:08.251Z,17.17
2023-02-13T04:28:34.882Z,16.37
2023-02-13T04:31:02.049Z,16.57
2023-02-13T04:33:28.940Z,16.13
2023-02-13T04:35:56.802Z,16.97
2023-02-13T04:38:23.367Z,15.93
2023-02-13T04:40:49.919Z,17.10
2023-02-13T04:43:16.581Z,16.23
2023-02-13T04:45:43.321Z,15.73
2023-02-13T04:48:10.048Z,16.07
2023-02-13T04:50:37.904Z,16.57
2023-02-13T04:53:04.476Z,17.30
2023-02-13T04:55:31.061Z,16.03
2023-02-13T04:57:58.096Z,16.77
2023-02-13T05:00:26.749Z,16.40
2023-02-13T05:02:53.960Z,16.17
2023-02-13T05:05:21.142Z,16.77
2023-02-13T05:07:47.767Z,20.95
2023-02-13T05:10:14.366Z,16.07
2023-02-13T05:12:40.944Z,16.77
2023-02-13T05:15:08.210Z,16.30
2023-02-13T05:17:34.774Z,15.63
2023-02-13T05:20:01.435Z,16.07
2023-02-13T05:22:46.720Z,16.23
2023-02-13T05:25:13.335Z,16.60
2023-02-13T05:27:39.891Z,16.60
2023-02-13T05:30:07.145Z,16.57
2023-02-13T05:32:33.742Z,16.67
2023-02-13T05:35:04.436Z,16.20
2023-02-13T05:37:31.429Z,16.20
2023-02-13T05:39:57.972Z,16.20
2023-02-13T05:42:24.524Z,18.23
2023-02-13T05:44:51.069Z,16.10
2023-02-13T05:47:17.637Z,16.60
2023-02-13T05:49:44.238Z,15.13
2023-02-13T05:52:10.832Z,16.63
2023-02-13T05:54:39.630Z,16.33
2023-02-13T05:57:06.323Z,15.57
2023-02-13T05:59:33.008Z,16.23
2023-02-13T06:01:59.570Z,17.63
2023-02-13T06:04:26.292Z,18.70
2023-02-13T06:06:52.871Z,16.87
2023-02-13T06:09:19.456Z,16.30
2023-02-13T06:11:46.023Z,17.63
2023-02-13T06:14:13.953Z,17.17
2023-02-13T06:16:41.130Z,16.70
2023-02-13T06:19:07.843Z,17.33
2023-02-13T06:21:37.811Z,18.48
2023-02-13T06:24:05.859Z,18.33
2023-02-13T06:26:32.792Z,18.00
2023-02-13T06:28:59.437Z,17.03
2023-02-13T06:31:27.194Z,18.37
2023-02-13T06:33:53.885Z,17.67
2023-02-13T06:36:20.471Z,18.83
2023-02-13T06:38:47.072Z,17.90
2023-02-13T06:41:13.633Z,20.20
2023-02-13T06:43:40.933Z,19.80
2023-02-13T06:46:08.704Z,19.17
2023-02-13T06:48:35.310Z,19.37
2023-02-13T06:51:02.155Z,19.10
2023-02-13T06:53:29.653Z,18.90
2023-02-13T06:55:56.768Z,20.23
2023-02-13T06:58:24.971Z,19.83
2023-02-13T07:00:52.525Z,20.80
2023-02-13T07:03:20.278Z,18.27
2023-02-13T07:05:46.914Z,19.40
2023-02-13T07:08:13.672Z,19.43
2023-02-13T07:10:41.947Z,19.70
2023-02-13T07:13:09.843Z,20.60
2023-02-13T07:15:37.330Z,19.87
2023-02-13T07:18:05.727Z,21.23
2023-02-13T07:20:32.920Z,23.33
2023-02-13T07:23:00.626Z,23.57
2023-02-13T07:25:28.174Z,24.63
2023-02-13T07:27:55.380Z,23.87
2023-02-13T07:30:22.098Z,24.23
2023-02-13T07:32:48.744Z,23.43
2023-02-13T07:35:15.448Z,23.40
2023-02-13T07:37:41.994Z,24.80
2023-02-13T07:40:10.272Z,24.63
2023-02-13T07:42:36.857Z,24.10
2023-02-13T07:45:05.607Z,22.67
2023-02-13T07:47:33.991Z,25.53
2023-02-13T07:50:01.173Z,22.20
2023-02-13T07:52:27.712Z,22.07
2023-02-13T07:54:54.282Z,22.93
2023-02-13T07:57:20.831Z,22.93
2023-02-13T07:59:47.393Z,21.87
2023-02-13T08:02:14.907Z,22.40
2023-02-13T08:04:41.860Z,21.30
2023-02-13T08:07:08.476Z,21.63
2023-02-13T08:09:53.493Z,20.67
2023-02-13T08:12:20.073Z,28.02
2023-02-13T08:14:46.625Z,23.47
2023-02-13T08:17:13.429Z,21.57
2023-02-13T08:19:40.293Z,21.40
2023-02-13T08:22:06.981Z,22.27
2023-02-13T08:24:33.818Z,22.50
2023-02-13T08:27:00.394Z,22.23
2023-02-13T08:29:27.072Z,23.63
2023-02-13T08:31:53.952Z,21.47
2023-02-13T08:34:20.647Z,22.63
2023-02-13T08:36:47.258Z,22.83
2023-02-13T08:39:13.860Z,23.97
2023-02-13T08:41:42.218Z,22.33
2023-02-13T08:44:10.065Z,21.90
2023-02-13T08:46:36.803Z,22.43
2023-02-13T08:49:03.625Z,22.80
2023-02-13T08:51:30.298Z,26.35
2023-02-13T08:53:57.588Z,21.73
2023-02-13T08:56:24.226Z,21.03
2023-02-13T08:58:51.132Z,21.47
2023-02-13T09:01:19.017Z,20.63
2023-02-13T09:03:45.645Z,19.83
2023-02-13T09:06:12.294Z,19.27
2023-02-13T09:08:38.898Z,18.47
2023-02-13T09:11:07.287Z,17.63
2023-02-13T09:13:35.376Z,17.30
2023-02-13T09:16:07.048Z,17.80
2023-02-13T09:18:35.023Z,16.97
2023-02-13T09:21:06.816Z,15.57
2023-02-13T09:23:35.444Z,16.70
2023-02-13T09:26:07.060Z,17.20
2023-02-13T09:28:35.308Z,16.83
2023-02-13T09:31:10.025Z,16.67
2023-02-13T09:33:37.158Z,16.30
2023-02-13T09:36:15.151Z,16.40
2023-02-13T09:38:44.045Z,14.50
2023-02-13T09:41:17.387Z,12.53
2023-02-13T09:43:48.652Z,14.60
2023-02-13T09:46:27.951Z,12.73
2023-02-13T09:48:57.292Z,14.20
2023-02-13T09:51:25.686Z,13.83
2023-02-13T09:53:54.535Z,13.33
2023-02-13T09:56:24.576Z,12.67
2023-02-13T09:58:57.993Z,13.10
2023-02-13T10:01:29.049Z,14.30
2023-02-13T10:04:05.408Z,12.83
2023-02-13T10:06:34.527Z,14.60
2023-02-13T10:09:12.294Z,13.50
2023-02-13T10:11:47.859Z,13.90
2023-02-13T10:14:17.688Z,14.33
2023-02-13T10:16:52.616Z,13.70
2023-02-13T10:19:46.717Z,15.07
2023-02-13T10:22:28.305Z,13.57
2023-02-13T10:25:01.161Z,14.43
2023-02-13T10:27:31.613Z,13.93
2023-02-13T10:30:09.506Z,13.93
2023-02-13T10:32:40.741Z,12.10
2023-02-13T10:35:17.394Z,13.27
2023-02-13T10:37:45.049Z,11.57
2023-02-13T10:40:12.440Z,11.97
2023-02-13T10:42:39.493Z,14.67
2023-02-13T10:45:16.966Z,14.40
2023-02-13T10:47:44.212Z,13.63
2023-02-13T10:50:22.646Z,13.17
2023-02-13T10:52:49.636Z,13.73
2023-02-13T10:55:19.778Z,13.33
2023-02-13T10:57:57.396Z,13.77
2023-02-13T11:00:27.890Z,12.87
2023-02-13T11:02:56.451Z,13.30
2023-02-13T11:05:25.579Z,12.80
2023-02-13T11:07:52.576Z,13.13
2023-02-13T11:10:20.939Z,12.67
2023-02-13T11:12:48.460Z,13.00
2023-02-13T11:15:25.605Z,13.17
2023-02-13T11:17:54.034Z,12.80
2023-02-13T11:20:24.023Z,12.97
2023-02-13T11:22:51.144Z,12.70
2023-02-13T11:25:23.144Z,12.37
2023-02-13T11:27:51.232Z,12.13
2023-02-13T11:30:24.249Z,12.13
2023-02-13T11:33:01.614Z,12.07
2023-02-13T11:35:35.808Z,12.33
2023-02-13T11:38:18.230Z,12.20
2023-02-13T11:40:47.678Z,11.57
2023-02-13T11:43:19.081Z,10.90
2023-02-13T11:45:46.231Z,11.83
2023-02-13T11:48:21.615Z,11.33
2023-02-13T11:50:52.506Z,10.93
2023-02-13T11:53:21.385Z,11.17
2023-02-13T11:56:02.598Z,11.20
2023-02-13T11:58:31.227Z,10.67
2023-02-13T12:01:10.192Z,10.50
2023-02-13T12:03:38.831Z,10.77
2023-02-13T12:06:16.336Z,10.90
2023-02-13T12:08:45.554Z,10.50
2023-02-13T12:11:28.182Z,10.10
2023-02-13T12:13:55.710Z,9.30
2023-02-13T12:16:22.701Z,9.30
2023-02-13T12:18:54.672Z,9.67
2023-02-13T12:21:27.754Z,9.20
2023-02-13T12:23:54.731Z,9.27
2023-02-13T12:26:36.265Z,9.33
2023-02-13T12:29:10.376Z,8.87
2023-02-13T12:31:50.569Z,8.57
2023-02-13T12:34:26.844Z,9.32
2023-02-13T12:37:13.828Z,9.27
2023-02-13T12:39:42.680Z,8.67
2023-02-13T12:42:29.939Z,8.63
2023-02-13T12:45:05.799Z,8.90
2023-02-13T12:47:41.788Z,8.10
2023-02-13T12:50:08.776Z,8.20
2023-02-13T12:53:04.842Z,8.23
2023-02-13T12:55:50.706Z,8.70
2023-02-13T12:58:26.541Z,10.10
2023-02-13T13:01:14.472Z,9.10
2023-02-13T13:04:03.186Z,10.10
2023-02-13T13:06:33.426Z,10.00
2023-02-13T13:09:17.528Z,10.48
2023-02-13T13:12:01.153Z,10.13
2023-02-13T13:14:35.914Z,10.20
2023-02-13T13:17:07.957Z,10.73
2023-02-13T13:19:49.410Z,10.73
2023-02-13T13:22:25.671Z,11.53
2023-02-13T13:25:19.078Z,11.20
2023-02-13T13:27:49.200Z,11.90
2023-02-13T13:30:28.186Z,10.97
2023-02-13T13:32:58.039Z,10.23
2023-02-13T13:35:25.245Z,11.23
2023-02-13T13:38:02.548Z,11.40
2023-02-13T13:40:29.598Z,9.87
2023-02-13T13:43:01.046Z,11.27
2023-02-13T13:45:45.461Z,10.27
2023-02-13T13:48:12.463Z,10.83
2023-02-13T13:50:41.992Z,10.13
2023-02-13T13:53:20.193Z,10.17
2023-02-13T13:55:47.453Z,9.93
2023-02-13T13:58:25.127Z,11.43
2023-02-13T14:01:10.731Z,10.53
2023-02-13T14:03:38.512Z,10.20
2023-02-13T14:06:07.629Z,10.47
2023-02-13T14:08:37.858Z,10.97
2023-02-13T14:11:04.951Z,10.93
2023-02-13T14:13:33.810Z,9.47
2023-02-13T14:16:00.972Z,10.23
2023-02-13T14:18:29.799Z,10.10
2023-02-13T14:20:58.928Z,9.60
2023-02-13T14:23:50.091Z,11.38
2023-02-13T14:26:17.166Z,9.73
2023-02-13T14:28:50.068Z,10.70
2023-02-13T14:31:28.264Z,10.27
2023-02-13T14:34:01.295Z,10.33
2023-02-13T14:36:39.201Z,10.33
2023-02-13T14:39:19.459Z,10.37
2023-02-13T14:41:49.272Z,9.97
2023-02-13T14:44:20.880Z,9.27
2023-02-13T14:46:49.103Z,9.63
2023-02-13T14:49:18.524Z,9.20
2023-02-13T14:51:53.036Z,9.30
2023-02-13T14:54:23.293Z,8.30
2023-02-13T14:56:52.472Z,9.27
2023-02-13T14:59:27.417Z,9.87
2023-02-13T15:01:58.508Z,9.50
2023-02-13T15:04:31.790Z,11.13
2023-02-13T15:07:01.004Z,9.63
2023-02-13T15:09:33.527Z,8.83
2023-02-13T15:12:01.028Z,8.93
2023-02-13T15:14:35.153Z,10.10
2023-02-13T15:17:07.725Z,9.03
2023-02-13T15:19:36.013Z,9.60
2023-02-13T15:22:05.184Z,8.60
2023-02-13T15:24:44.664Z,8.87
2023-02-13T15:27:25.422Z,9.27
2023-02-13T15:29:56.720Z,9.80
2023-02-13T15:32:28.809Z,8.33
2023-02-13T15:34:55.946Z,8.73
2023-02-13T15:37:23.777Z,8.17
2023-02-13T15:39:50.810Z,8.73
2023-02-13T15:42:17.891Z,8.90
2023-02-13T15:44:46.387Z,9.40
2023-02-13T15:47:18.119Z,8.53
2023-02-13T15:49:46.973Z,9.20
2023-02-13T15:52:18.761Z,9.03
2023-02-13T15:54:50.115Z,9.17
2023-02-13T15:57:17.851Z,8.43
2023-02-13T15:59:45.825Z,8.43
2023-02-13T16:02:19.202Z,8.03
2023-02-13T16:04:46.885Z,8.40
2023-02-13T16:07:14.473Z,7.90
2023-02-13T16:09:41.540Z,7.77
2023-02-13T16:12:20.284Z,7.70
2023-02-13T16:14:53.756Z,7.30
2023-02-13T16:17:28.941Z,6.37
2023-02-13T16:20:17.714Z,7.80
2023-02-13T16:22:46.038Z,7.30
2023-02-13T16:25:13.129Z,7.40
2023-02-13T16:27:50.738Z,7.83
2023-02-13T16:30:32.844Z,7.30
2023-02-13T16:33:15.421Z,8.20
2023-02-13T16:35:48.583Z,7.77
2023-02-13T16:38:25.988Z,7.83
2023-02-13T16:40:53.071Z,8.40
2023-02-13T16:43:41.612Z,8.23
2023-02-13T16:46:41.015Z,8.70
2023-02-13T16:49:10.930Z,8.27
2023-02-13T16:51:42.591Z,8.80
2023-02-13T16:54:12.141Z,10.07
2023-02-13T16:56:50.217Z,8.93
2023-02-13T16:59:24.823Z,8.90
2023-02-13T17:02:11.206Z,9.60
2023-02-13T17:04:39.183Z,8.83
2023-02-13T17:07:12.677Z,8.93
2023-02-13T17:09:39.382Z,8.90
2023-02-13T17:12:13.394Z,9.37
2023-02-13T17:14:40.162Z,9.70
2023-02-13T17:17:19.142Z,9.60
2023-02-13T17:19:45.843Z,9.93
2023-02-13T17:22:42.789Z,9.73
2023-02-13T17:25:26.226Z,9.60
2023-02-13T17:27:56.204Z,10.03
2023-02-13T17:30:28.566Z,9.33
2023-02-13T17:33:31.510Z,11.95
2023-02-13T17:35:58.122Z,9.63
2023-02-13T17:38:24.905Z,11.07
2023-02-13T17:40:51.811Z,10.93
2023-02-13T17:43:19.688Z,9.83
2023-02-13T17:45:47.499Z,10.30
2023-02-13T17:48:14.406Z,10.67
2023-02-13T17:50:41.424Z,10.83
2023-02-13T17:53:18.673Z,11.23
2023-02-13T17:55:45.221Z,11.77
2023-02-13T17:58:11.783Z,11.43
2023-02-13T18:00:38.649Z,11.50
2023-02-13T18:03:05.484Z,12.47
2023-02-13T18:05:33.105Z,11.53
2023-02-13T18:08:03.576Z,13.52
2023-02-13T18:10:33.088Z,11.50
2023-02-13T18:13:04.258Z,12.30
2023-02-13T18:15:32.657Z,12.20
2023-02-13T18:17:59.494Z,11.93
2023-02-13T18:20:26.539Z,12.30
2023-02-13T18:22:53.828Z,11.60
2023-02-13T18:25:21.575Z,11.80
2023-02-13T18:27:48.484Z,12.87
2023-02-13T18:30:19.151Z,13.43
2023-02-13T18:32:50.176Z,14.30
2023-02-13T18:35:17.570Z,13.77
2023-02-13T18:37:44.185Z,14.30
2023-02-13T18:40:11.533Z,14.77
2023-02-13T18:42:38.976Z,14.93
2023-02-13T18:45:06.365Z,15.87
2023-02-13T18:47:32.902Z,16.13
2023-02-13T18:49:59.611Z,14.50
2023-02-13T18:52:26.240Z,15.30
2023-02-13T18:54:52.902Z,15.23
2023-02-13T18:57:19.560Z,15.77
2023-02-13T18:59:46.111Z,15.20
2023-02-13T19:02:13.007Z,15.17
2023-02-13T19:04:39.736Z,16.13
2023-02-13T19:07:06.302Z,16.00
2023-02-13T19:09:32.970Z,16.30
2023-02-13T19:11:59.527Z,15.93
2023-02-13T19:14:26.886Z,16.10
2023-02-13T19:16:53.530Z,16.40
2023-02-13T19:19:20.158Z,17.57
2023-02-13T19:21:46.724Z,17.63
2023-02-13T19:24:15.420Z,14.90
2023-02-13T19:26:42.249Z,16.27
2023-02-13T19:29:09.098Z,16.23
2023-02-13T19:31:36.419Z,16.60
2023-02-13T19:34:05.555Z,16.03
2023-02-13T19:36:32.190Z,15.33
2023-02-13T19:39:04.906Z,16.13
2023-02-13T19:41:32.835Z,17.07
2023-02-13T19:44:00.307Z,15.80
2023-02-13T19:46:29.371Z,16.80
2023-02-13T19:48:56.584Z,15.30
2023-02-13T19:51:25.727Z,15.63
2023-02-13T19:54:00.776Z,20.10
2023-02-13T19:56:28.656Z,19.73
2023-02-13T19:58:55.590Z,17.17
2023-02-13T20:01:24.503Z,14.97
2023-02-13T20:03:51.741Z,17.53
2023-02-13T20:06:29.892Z,17.37
2023-02-13T20:08:59.709Z,17.37
2023-02-13T20:11:26.314Z,16.27
2023-02-13T20:13:57.456Z,16.33
2023-02-13T20:16:24.149Z,17.53
2023-02-13T20:18:51.082Z,17.90
2023-02-13T20:21:18.801Z,18.63
2023-02-13T20:23:50.302Z,17.40
2023-02-13T20:26:17.602Z,17.43
2023-02-13T20:28:46.188Z,16.50
2023-02-13T20:31:15.523Z,16.47
2023-02-13T20:33:42.991Z,16.33
2023-02-13T20:36:14.138Z,19.20
2023-02-13T20:38:41.784Z,17.07
2023-02-13T20:41:10.003Z,16.33
2023-02-13T20:43:37.006Z,19.17
2023-02-13T20:46:04.614Z,18.30
2023-02-13T20:48:32.920Z,15.90
2023-02-13T20:51:05.932Z,16.60
2023-02-13T20:53:32.873Z,16.90
2023-02-13T20:56:06.961Z,17.67
2023-02-13T20:58:34.445Z,17.60
2023-02-13T21:01:02.210Z,16.90
2023-02-13T21:03:29.015Z,17.40
2023-02-13T21:05:55.622Z,16.87
2023-02-13T21:08:22.201Z,16.43
2023-02-13T21:10:48.804Z,18.20
2023-02-13T21:13:15.356Z,17.87
2023-02-13T21:15:42.363Z,20.23
2023-02-13T21:18:09.416Z,17.27
2023-02-13T21:20:36.488Z,17.20
2023-02-13T21:23:05.302Z,17.93
2023-02-13T21:25:37.173Z,17.80
2023-02-13T21:28:04.141Z,16.17
2023-02-13T21:30:31.468Z,16.67
2023-02-13T21:32:58.377Z,17.13
2023-02-13T21:35:25.010Z,16.23
2023-02-13T21:37:51.629Z,17.60
2023-02-13T21:40:19.736Z,17.53
2023-02-13T21:42:46.394Z,17.47
2023-02-13T21:45:12.965Z,16.87
2023-02-13T21:47:39.532Z,16.67
2023-02-13T21:50:06.721Z,18.27
2023-02-13T21:52:37.356Z,17.13
2023-02-13T21:55:04.675Z,17.63
2023-02-13T21:57:31.209Z,18.50
2023-02-13T21:59:59.830Z,18.17
2023-02-13T22:02:26.952Z,18.50
2023-02-13T22:04:53.706Z,19.00
2023-02-13T22:07:20.254Z,18.40
2023-02-13T22:09:49.224Z,19.10
2023-02-13T22:12:15.894Z,18.77
2023-02-13T22:14:42.479Z,18.33
2023-02-13T22:17:09.127Z,19.00
2023-02-13T22:19:35.770Z,20.63
2023-02-13T22:22:02.332Z,18.80
2023-02-13T22:24:28.991Z,18.53
2023-02-13T22:26:55.653Z,18.50
2023-02-13T22:29:23.897Z,19.13
2023-02-13T22:31:50.610Z,25.33
2023-02-13T22:34:17.223Z,20.57
2023-02-13T22:36:43.902Z,19.03
2023-02-13T22:39:11.738Z,20.23
2023-02-13T22:41:38.701Z,18.60
2023-02-13T22:44:05.890Z,19.90
2023-02-13T22:46:33.358Z,19.53
2023-02-13T22:49:00.726Z,19.67
2023-02-13T22:51:33.086Z,19.60
2023-02-13T22:54:01.240Z,19.63
2023-02-13T22:56:29.369Z,19.80
2023-02-13T22:58:56.879Z,20.63
2023-02-13T23:01:25.502Z,20.90
2023-02-13T23:03:52.318Z,19.97
2023-02-13T23:06:19.262Z,21.00
2023-02-13T23:08:48.907Z,20.83
2023-02-13T23:11:35.190Z,22.10
2023-02-13T23:14:02.467Z,20.97
2023-02-13T23:16:49.108Z,21.13
2023-02-13T23:19:16.033Z,21.30
2023-02-13T23:21:42.596Z,22.10
2023-02-13T23:24:09.164Z,21.57
2023-02-13T23:26:35.948Z,22.73
2023-02-13T23:29:02.506Z,22.07
2023-02-13T23:31:29.233Z,23.20
2023-02-13T23:33:55.822Z,22.13
2023-02-13T23:36:22.379Z,23.73
2023-02-13T23:38:48.976Z,23.10
2023-02-13T23:41:15.548Z,21.97
2023-02-13T23:43:42.089Z,22.97
2023-02-13T23:46:08.680Z,30.40
2023-02-13T23:48:35.310Z,23.80
2023-02-13T23:51:02.261Z,22.77
2023-02-13T23:53:29.299Z,22.50
2023-02-13T23:55:57.164Z,23.73
2023-02-13T23:58:23.727Z,23.27
